Minerva Zen — SVBN3 — position and weather

sailwx.info

Track history (hours):
 
Tides and Currents Weather Stations Pressure Air Temp Water Temp Dewpoint Dewpoint Depression Visibility Wind Speed Wind Dir Waves Ship Positions

Minerva Zen

Last reported at 2018-Apr-23 14:53 UTC. Time now 2018-Apr-23 17:16 UTC.
Position N 26°05' W 080°07'.

Length 183 m; draft 8 m.

Type: Tanker. MMSI: 241190000.

Date/timePositionNaut miles runAvg speedWind from/ knotsBaromVisibWave heightAir tempDewpointWater temp
2018-Apr-23 14:53N 26°05' W 080°07'0 0.0
2018-Apr-23 14:23N 26°05' W 080°07'0 0.0
2018-Apr-23 13:53N 26°05' W 080°07'0 0.0
2018-Apr-23 13:11N 26°05' W 080°07'0 0.0
2018-Apr-23 12:53N 26°05' W 080°07'0 0.0
2018-Apr-23 12:29N 26°05' W 080°07'0 0.0
2018-Apr-23 11:14N 26°05' W 080°07'0 0.0
2018-Apr-23 10:59N 26°05' W 080°07'0 0.0
2018-Apr-23 10:29N 26°05' W 080°07'0 0.0
2018-Apr-23 09:59N 26°05' W 080°07'0 0.0
2018-Apr-23 09:26N 26°05' W 080°07'0 0.0
2018-Apr-23 08:59N 26°05' W 080°07'0 0.0
2018-Apr-23 08:30N 26°05' W 080°07'0 0.0
2018-Apr-23 08:00N 26°05' W 080°07'0 0.1
2018-Apr-23 07:30N 26°05' W 080°07'1 2.1
2018-Apr-23 07:00N 26°06' W 080°06'5 9.2
2018-Apr-23 06:30N 26°05' W 080°01'511.0
2018-Apr-23 06:00N 26°06' W 079°55'510.9
2018-Apr-23 05:30N 26°06' W 079°49'611.2
2018-Apr-23 05:00N 26°06' W 079°43'611.5
2018-Apr-23 04:30N 26°06' W 079°36'611.3
2018-Apr-23 04:00N 26°08' W 079°30'611.6
2018-Apr-23 03:29N 26°11' W 079°24'  
2018-Apr-18 15:21N 26°31' W 078°46'0 0.0
2018-Apr-18 14:53N 26°31' W 078°46'0 0.0
2018-Apr-18 14:12N 26°31' W 078°46'0 0.0
2018-Apr-18 13:56N 26°31' W 078°46'0 0.0
2018-Apr-18 13:27N 26°31' W 078°46'0 0.0
2018-Apr-18 12:54N 26°31' W 078°46'0 0.0
2018-Apr-18 12:00N 26°31' W 078°46'0 0.0
2018-Apr-18 11:27N 26°31' W 078°46'0 0.0
2018-Apr-18 11:00N 26°31' W 078°46'0 0.0
2018-Apr-18 09:30N 26°31' W 078°46'0 0.0
2018-Apr-18 09:00N 26°31' W 078°46'0 0.0
2018-Apr-18 08:03N 26°31' W 078°46'0 0.0
2018-Apr-18 07:48N 26°31' W 078°46'5 0.4
2018-Apr-17 19:20N 26°26' W 078°47'0 0.6
2018-Apr-17 18:56N 26°26' W 078°46'4 6.8
2018-Apr-17 18:17N 26°23' W 078°42'612.9
2018-Apr-17 17:51N 26°20' W 078°38'11 4.6
2018-Apr-17 15:30N 26°14' W 078°28'5 1.2
2018-Apr-17 11:27N 26°19' W 078°29'1 0.0
2018-Apr-16 01:48N 26°19' W 078°29'0 1.0
2018-Apr-16 01:30N 26°19' W 078°29'1 1.0
2018-Apr-16 01:00N 26°18' W 078°29'153 6.7
2018-Apr-15 02:09N 28°15' W 080°21'212.3
2018-Apr-15 02:00N 28°16' W 080°23'  
Track history (hours):
 
Tides and Currents Weather Stations Pressure Air Temp Water Temp Dewpoint Dewpoint Depression Visibility Wind Speed Wind Dir Waves Ship Positions

Minerva Zen

Last reported at 2018-Apr-23 14:53 UTC. Time now 2018-Apr-23 17:16 UTC.
Position N 26°05' W 080°07'.

Length 183 m; draft 8 m.

Type: Tanker. MMSI: 241190000.

Date/timePositionNaut miles runAvg speedWind from/ knotsBaromVisibWave heightAir tempDewpointWater temp
2018-Apr-23 14:53N 26°05' W 080°07'0 0.0
2018-Apr-23 14:23N 26°05' W 080°07'0 0.0
2018-Apr-23 13:53N 26°05' W 080°07'0 0.0
2018-Apr-23 13:11N 26°05' W 080°07'0 0.0
2018-Apr-23 12:53N 26°05' W 080°07'0 0.0
2018-Apr-23 12:29N 26°05' W 080°07'0 0.0
2018-Apr-23 11:14N 26°05' W 080°07'0 0.0
2018-Apr-23 10:59N 26°05' W 080°07'0 0.0
2018-Apr-23 10:29N 26°05' W 080°07'0 0.0
2018-Apr-23 09:59N 26°05' W 080°07'0 0.0
2018-Apr-23 09:26N 26°05' W 080°07'0 0.0
2018-Apr-23 08:59N 26°05' W 080°07'0 0.0
2018-Apr-23 08:30N 26°05' W 080°07'0 0.0
2018-Apr-23 08:00N 26°05' W 080°07'0 0.1
2018-Apr-23 07:30N 26°05' W 080°07'1 2.1
2018-Apr-23 07:00N 26°06' W 080°06'5 9.2
2018-Apr-23 06:30N 26°05' W 080°01'511.0
2018-Apr-23 06:00N 26°06' W 079°55'510.9
2018-Apr-23 05:30N 26°06' W 079°49'611.2
2018-Apr-23 05:00N 26°06' W 079°43'611.5
2018-Apr-23 04:30N 26°06' W 079°36'611.3
2018-Apr-23 04:00N 26°08' W 079°30'611.6
2018-Apr-23 03:29N 26°11' W 079°24'  
2018-Apr-18 15:21N 26°31' W 078°46'0 0.0
2018-Apr-18 14:53N 26°31' W 078°46'0 0.0
2018-Apr-18 14:12N 26°31' W 078°46'0 0.0
2018-Apr-18 13:56N 26°31' W 078°46'0 0.0
2018-Apr-18 13:27N 26°31' W 078°46'0 0.0
2018-Apr-18 12:54N 26°31' W 078°46'0 0.0
2018-Apr-18 12:00N 26°31' W 078°46'0 0.0
2018-Apr-18 11:27N 26°31' W 078°46'0 0.0
2018-Apr-18 11:00N 26°31' W 078°46'0 0.0
2018-Apr-18 09:30N 26°31' W 078°46'0 0.0
2018-Apr-18 09:00N 26°31' W 078°46'0 0.0
2018-Apr-18 08:03N 26°31' W 078°46'0 0.0
2018-Apr-18 07:48N 26°31' W 078°46'5 0.4
2018-Apr-17 19:20N 26°26' W 078°47'0 0.6
2018-Apr-17 18:56N 26°26' W 078°46'4 6.8
2018-Apr-17 18:17N 26°23' W 078°42'612.9
2018-Apr-17 17:51N 26°20' W 078°38'11 4.6
2018-Apr-17 15:30N 26°14' W 078°28'5 1.2
2018-Apr-17 11:27N 26°19' W 078°29'1 0.0
2018-Apr-16 01:48N 26°19' W 078°29'0 1.0
2018-Apr-16 01:30N 26°19' W 078°29'1 1.0
2018-Apr-16 01:00N 26°18' W 078°29'153 6.7
2018-Apr-15 02:09N 28°15' W 080°21'212.3
2018-Apr-15 02:00N 28°16' W 080°23'  

Dump ship's entire track history